sensor_id;sensor_type;location;lat;lon;timestamp;P1;durP1;ratioP1;P2;durP2;ratioP2
9294;SDS011;4686;44.496;11.324;2023-07-31T00:00:29;8.30;;;6.27;;
9294;SDS011;4686;44.496;11.324;2023-07-31T00:02:56;8.60;;;5.20;;
9294;SDS011;4686;44.496;11.324;2023-07-31T00:05:24;6.57;;;5.20;;
9294;SDS011;4686;44.496;11.324;2023-07-31T00:07:51;5.43;;;4.93;;
9294;SDS011;4686;44.496;11.324;2023-07-31T00:10:20;7.90;;;5.27;;
9294;SDS011;4686;44.496;11.324;2023-07-31T00:12:47;7.60;;;4.90;;
9294;SDS011;4686;44.496;11.324;2023-07-31T00:15:16;6.67;;;5.53;;
9294;SDS011;4686;44.496;11.324;2023-07-31T00:17:43;5.73;;;5.03;;
9294;SDS011;4686;44.496;11.324;2023-07-31T00:20:10;6.20;;;5.03;;
9294;SDS011;4686;44.496;11.324;2023-07-31T00:22:38;9.90;;;5.27;;
9294;SDS011;4686;44.496;11.324;2023-07-31T00:25:05;7.93;;;5.13;;
9294;SDS011;4686;44.496;11.324;2023-07-31T00:27:32;9.63;;;5.00;;
9294;SDS011;4686;44.496;11.324;2023-07-31T00:30:00;7.90;;;4.70;;
9294;SDS011;4686;44.496;11.324;2023-07-31T00:32:28;6.43;;;5.80;;
9294;SDS011;4686;44.496;11.324;2023-07-31T00:34:56;6.93;;;5.20;;
9294;SDS011;4686;44.496;11.324;2023-07-31T00:37:23;7.50;;;5.60;;
9294;SDS011;4686;44.496;11.324;2023-07-31T00:39:51;9.07;;;5.20;;
9294;SDS011;4686;44.496;11.324;2023-07-31T00:42:19;7.77;;;5.77;;
9294;SDS011;4686;44.496;11.324;2023-07-31T00:44:46;5.77;;;5.27;;
9294;SDS011;4686;44.496;11.324;2023-07-31T00:47:14;6.37;;;5.00;;
9294;SDS011;4686;44.496;11.324;2023-07-31T00:49:42;7.63;;;5.33;;
9294;SDS011;4686;44.496;11.324;2023-07-31T00:52:10;5.83;;;5.23;;
9294;SDS011;4686;44.496;11.324;2023-07-31T00:54:38;6.37;;;5.00;;
9294;SDS011;4686;44.496;11.324;2023-07-31T00:57:05;5.13;;;4.63;;
9294;SDS011;4686;44.496;11.324;2023-07-31T00:59:36;5.60;;;4.97;;
9294;SDS011;4686;44.496;11.324;2023-07-31T01:02:04;8.83;;;5.20;;
9294;SDS011;4686;44.496;11.324;2023-07-31T01:04:32;6.60;;;4.93;;
9294;SDS011;4686;44.496;11.324;2023-07-31T01:07:02;6.93;;;5.23;;
9294;SDS011;4686;44.496;11.324;2023-07-31T01:09:34;5.70;;;5.20;;
9294;SDS011;4686;44.496;11.324;2023-07-31T01:12:04;5.83;;;5.33;;
9294;SDS011;4686;44.496;11.324;2023-07-31T01:14:34;9.90;;;6.17;;
9294;SDS011;4686;44.496;11.324;2023-07-31T01:17:01;5.90;;;5.30;;
9294;SDS011;4686;44.496;11.324;2023-07-31T01:19:29;5.70;;;5.20;;
9294;SDS011;4686;44.496;11.324;2023-07-31T01:24:57;7.60;;;5.90;;
9294;SDS011;4686;44.496;11.324;2023-07-31T01:27:28;9.27;;;5.90;;
9294;SDS011;4686;44.496;11.324;2023-07-31T01:29:59;5.43;;;4.97;;
9294;SDS011;4686;44.496;11.324;2023-07-31T01:32:27;5.57;;;5.17;;
9294;SDS011;4686;44.496;11.324;2023-07-31T01:34:55;9.97;;;5.43;;
9294;SDS011;4686;44.496;11.324;2023-07-31T01:37:27;7.27;;;5.70;;
9294;SDS011;4686;44.496;11.324;2023-07-31T01:39:55;5.37;;;4.93;;
9294;SDS011;4686;44.496;11.324;2023-07-31T01:42:22;7.63;;;5.73;;
9294;SDS011;4686;44.496;11.324;2023-07-31T01:44:51;7.57;;;5.43;;
9294;SDS011;4686;44.496;11.324;2023-07-31T01:47:18;7.63;;;5.80;;
9294;SDS011;4686;44.496;11.324;2023-07-31T01:49:46;7.17;;;5.33;;
9294;SDS011;4686;44.496;11.324;2023-07-31T01:52:13;6.43;;;5.40;;
9294;SDS011;4686;44.496;11.324;2023-07-31T01:54:41;8.33;;;5.80;;
9294;SDS011;4686;44.496;11.324;2023-07-31T01:57:08;5.80;;;4.90;;
9294;SDS011;4686;44.496;11.324;2023-07-31T01:59:35;9.73;;;5.37;;
9294;SDS011;4686;44.496;11.324;2023-07-31T02:02:04;5.60;;;4.73;;
9294;SDS011;4686;44.496;11.324;2023-07-31T02:04:32;8.30;;;5.20;;
9294;SDS011;4686;44.496;11.324;2023-07-31T02:06:59;8.17;;;5.70;;
9294;SDS011;4686;44.496;11.324;2023-07-31T02:09:27;11.77;;;5.60;;
9294;SDS011;4686;44.496;11.324;2023-07-31T02:11:54;6.50;;;5.90;;
9294;SDS011;4686;44.496;11.324;2023-07-31T02:14:21;8.40;;;5.83;;
9294;SDS011;4686;44.496;11.324;2023-07-31T02:16:49;8.10;;;5.10;;
9294;SDS011;4686;44.496;11.324;2023-07-31T02:19:18;6.57;;;5.20;;
9294;SDS011;4686;44.496;11.324;2023-07-31T02:21:46;5.93;;;5.33;;
9294;SDS011;4686;44.496;11.324;2023-07-31T02:24:13;8.03;;;5.60;;
9294;SDS011;4686;44.496;11.324;2023-07-31T02:26:41;6.40;;;5.80;;
9294;SDS011;4686;44.496;11.324;2023-07-31T02:29:08;6.27;;;5.67;;
9294;SDS011;4686;44.496;11.324;2023-07-31T02:31:38;6.60;;;5.67;;
9294;SDS011;4686;44.496;11.324;2023-07-31T02:34:05;6.87;;;6.17;;
9294;SDS011;4686;44.496;11.324;2023-07-31T02:36:34;6.20;;;5.50;;
9294;SDS011;4686;44.496;11.324;2023-07-31T02:39:01;6.30;;;5.70;;
9294;SDS011;4686;44.496;11.324;2023-07-31T02:41:29;5.63;;;5.13;;
9294;SDS011;4686;44.496;11.324;2023-07-31T02:43:56;6.93;;;4.90;;
9294;SDS011;4686;44.496;11.324;2023-07-31T02:46:23;8.23;;;5.83;;
9294;SDS011;4686;44.496;11.324;2023-07-31T02:48:51;7.60;;;5.57;;
9294;SDS011;4686;44.496;11.324;2023-07-31T02:51:18;6.90;;;5.13;;
9294;SDS011;4686;44.496;11.324;2023-07-31T02:53:47;7.47;;;6.07;;
9294;SDS011;4686;44.496;11.324;2023-07-31T02:56:15;9.90;;;5.47;;
9294;SDS011;4686;44.496;11.324;2023-07-31T02:58:42;6.20;;;5.60;;
9294;SDS011;4686;44.496;11.324;2023-07-31T03:01:10;6.60;;;5.60;;
9294;SDS011;4686;44.496;11.324;2023-07-31T03:03:39;7.80;;;6.27;;
9294;SDS011;4686;44.496;11.324;2023-07-31T03:06:06;10.60;;;6.13;;
9294;SDS011;4686;44.496;11.324;2023-07-31T03:08:33;6.80;;;6.00;;
9294;SDS011;4686;44.496;11.324;2023-07-31T03:11:04;8.63;;;6.10;;
9294;SDS011;4686;44.496;11.324;2023-07-31T03:13:31;8.47;;;6.33;;
9294;SDS011;4686;44.496;11.324;2023-07-31T03:15:59;6.77;;;6.07;;
9294;SDS011;4686;44.496;11.324;2023-07-31T03:18:26;7.17;;;5.83;;
9294;SDS011;4686;44.496;11.324;2023-07-31T03:20:53;8.20;;;6.20;;
9294;SDS011;4686;44.496;11.324;2023-07-31T03:23:21;6.83;;;6.13;;
9294;SDS011;4686;44.496;11.324;2023-07-31T03:25:57;7.50;;;6.00;;
9294;SDS011;4686;44.496;11.324;2023-07-31T03:28:26;6.50;;;5.90;;
9294;SDS011;4686;44.496;11.324;2023-07-31T03:30:53;6.50;;;6.00;;
9294;SDS011;4686;44.496;11.324;2023-07-31T03:33:21;6.33;;;5.53;;
9294;SDS011;4686;44.496;11.324;2023-07-31T03:35:48;7.13;;;6.20;;
9294;SDS011;4686;44.496;11.324;2023-07-31T03:38:16;7.60;;;5.97;;
9294;SDS011;4686;44.496;11.324;2023-07-31T03:40:43;6.50;;;5.90;;
9294;SDS011;4686;44.496;11.324;2023-07-31T03:43:10;7.50;;;6.70;;
9294;SDS011;4686;44.496;11.324;2023-07-31T03:45:39;8.73;;;5.73;;
9294;SDS011;4686;44.496;11.324;2023-07-31T03:48:06;11.10;;;6.40;;
9294;SDS011;4686;44.496;11.324;2023-07-31T03:50:34;7.57;;;5.90;;
9294;SDS011;4686;44.496;11.324;2023-07-31T03:53:01;7.60;;;6.20;;
9294;SDS011;4686;44.496;11.324;2023-07-31T03:55:28;10.57;;;6.63;;
9294;SDS011;4686;44.496;11.324;2023-07-31T03:57:55;10.30;;;5.60;;
9294;SDS011;4686;44.496;11.324;2023-07-31T04:00:23;7.40;;;6.10;;
9294;SDS011;4686;44.496;11.324;2023-07-31T04:02:52;10.73;;;6.13;;
9294;SDS011;4686;44.496;11.324;2023-07-31T04:05:19;6.20;;;5.70;;
9294;SDS011;4686;44.496;11.324;2023-07-31T04:07:47;14.10;;;7.00;;
9294;SDS011;4686;44.496;11.324;2023-07-31T04:10:14;9.90;;;6.70;;
9294;SDS011;4686;44.496;11.324;2023-07-31T04:12:45;6.90;;;6.07;;
9294;SDS011;4686;44.496;11.324;2023-07-31T04:15:19;7.03;;;6.33;;
9294;SDS011;4686;44.496;11.324;2023-07-31T04:17:48;7.70;;;6.07;;
9294;SDS011;4686;44.496;11.324;2023-07-31T04:20:17;8.33;;;6.00;;
9294;SDS011;4686;44.496;11.324;2023-07-31T04:22:45;6.90;;;5.80;;
9294;SDS011;4686;44.496;11.324;2023-07-31T04:25:13;6.57;;;5.60;;
9294;SDS011;4686;44.496;11.324;2023-07-31T04:27:43;11.40;;;6.60;;
9294;SDS011;4686;44.496;11.324;2023-07-31T04:30:10;9.83;;;6.80;;
9294;SDS011;4686;44.496;11.324;2023-07-31T04:32:37;7.60;;;6.80;;
9294;SDS011;4686;44.496;11.324;2023-07-31T04:35:05;6.70;;;6.00;;
9294;SDS011;4686;44.496;11.324;2023-07-31T04:37:33;7.30;;;6.20;;
9294;SDS011;4686;44.496;11.324;2023-07-31T04:40:01;7.10;;;5.90;;
9294;SDS011;4686;44.496;11.324;2023-07-31T04:42:28;9.43;;;6.60;;
9294;SDS011;4686;44.496;11.324;2023-07-31T04:44:56;7.97;;;6.20;;
9294;SDS011;4686;44.496;11.324;2023-07-31T04:47:23;8.13;;;6.27;;
9294;SDS011;4686;44.496;11.324;2023-07-31T04:49:50;6.40;;;5.90;;
9294;SDS011;4686;44.496;11.324;2023-07-31T04:52:18;6.80;;;6.10;;
9294;SDS011;4686;44.496;11.324;2023-07-31T04:54:46;10.30;;;6.50;;
9294;SDS011;4686;44.496;11.324;2023-07-31T04:57:14;10.10;;;6.10;;
9294;SDS011;4686;44.496;11.324;2023-07-31T04:59:41;6.70;;;5.87;;
9294;SDS011;4686;44.496;11.324;2023-07-31T05:02:08;6.47;;;5.53;;
9294;SDS011;4686;44.496;11.324;2023-07-31T05:04:36;8.80;;;6.50;;
9294;SDS011;4686;44.496;11.324;2023-07-31T05:07:03;8.63;;;6.67;;
9294;SDS011;4686;44.496;11.324;2023-07-31T05:09:31;6.90;;;6.00;;
9294;SDS011;4686;44.496;11.324;2023-07-31T05:11:59;6.70;;;6.00;;
9294;SDS011;4686;44.496;11.324;2023-07-31T05:14:27;8.13;;;6.50;;
9294;SDS011;4686;44.496;11.324;2023-07-31T05:16:54;6.83;;;6.23;;
9294;SDS011;4686;44.496;11.324;2023-07-31T05:19:22;9.60;;;6.23;;
9294;SDS011;4686;44.496;11.324;2023-07-31T05:21:49;10.07;;;6.30;;
9294;SDS011;4686;44.496;11.324;2023-07-31T05:24:16;8.17;;;6.20;;
9294;SDS011;4686;44.496;11.324;2023-07-31T05:26:43;7.33;;;6.63;;
9294;SDS011;4686;44.496;11.324;2023-07-31T05:29:12;6.90;;;6.20;;
9294;SDS011;4686;44.496;11.324;2023-07-31T05:31:39;8.30;;;6.20;;
9294;SDS011;4686;44.496;11.324;2023-07-31T05:34:07;6.63;;;6.03;;
9294;SDS011;4686;44.496;11.324;2023-07-31T05:36:34;7.50;;;5.70;;
9294;SDS011;4686;44.496;11.324;2023-07-31T05:39:01;7.77;;;5.83;;
9294;SDS011;4686;44.496;11.324;2023-07-31T05:41:32;7.97;;;5.90;;
9294;SDS011;4686;44.496;11.324;2023-07-31T05:44:00;7.53;;;5.47;;
9294;SDS011;4686;44.496;11.324;2023-07-31T05:46:28;6.33;;;5.57;;
9294;SDS011;4686;44.496;11.324;2023-07-31T05:48:56;9.30;;;5.90;;
9294;SDS011;4686;44.496;11.324;2023-07-31T05:51:25;6.93;;;6.33;;
9294;SDS011;4686;44.496;11.324;2023-07-31T05:53:53;6.63;;;5.60;;
9294;SDS011;4686;44.496;11.324;2023-07-31T05:56:20;8.63;;;5.90;;
9294;SDS011;4686;44.496;11.324;2023-07-31T05:58:48;8.43;;;6.60;;
9294;SDS011;4686;44.496;11.324;2023-07-31T06:01:15;7.70;;;6.43;;
9294;SDS011;4686;44.496;11.324;2023-07-31T06:03:44;13.13;;;6.47;;
9294;SDS011;4686;44.496;11.324;2023-07-31T06:06:11;6.87;;;6.13;;
9294;SDS011;4686;44.496;11.324;2023-07-31T06:08:39;6.73;;;6.07;;
9294;SDS011;4686;44.496;11.324;2023-07-31T06:11:06;10.87;;;6.30;;
9294;SDS011;4686;44.496;11.324;2023-07-31T06:13:34;11.57;;;6.40;;
9294;SDS011;4686;44.496;11.324;2023-07-31T06:16:01;8.00;;;6.03;;
9294;SDS011;4686;44.496;11.324;2023-07-31T06:18:30;10.37;;;6.27;;
9294;SDS011;4686;44.496;11.324;2023-07-31T06:20:59;18.47;;;6.60;;
9294;SDS011;4686;44.496;11.324;2023-07-31T06:23:26;15.27;;;5.43;;
9294;SDS011;4686;44.496;11.324;2023-07-31T06:25:53;9.10;;;5.30;;
9294;SDS011;4686;44.496;11.324;2023-07-31T06:28:21;7.47;;;5.30;;
9294;SDS011;4686;44.496;11.324;2023-07-31T06:30:48;8.63;;;4.57;;
9294;SDS011;4686;44.496;11.324;2023-07-31T06:33:15;5.37;;;3.90;;
9294;SDS011;4686;44.496;11.324;2023-07-31T06:35:42;5.60;;;3.63;;
9294;SDS011;4686;44.496;11.324;2023-07-31T06:38:12;3.57;;;3.33;;
9294;SDS011;4686;44.496;11.324;2023-07-31T06:40:39;6.43;;;4.30;;
9294;SDS011;4686;44.496;11.324;2023-07-31T06:43:06;4.73;;;3.77;;
9294;SDS011;4686;44.496;11.324;2023-07-31T06:45:34;5.50;;;3.67;;
9294;SDS011;4686;44.496;11.324;2023-07-31T06:48:02;4.00;;;3.70;;
9294;SDS011;4686;44.496;11.324;2023-07-31T06:50:29;4.83;;;3.83;;
9294;SDS011;4686;44.496;11.324;2023-07-31T06:52:56;4.57;;;3.57;;
9294;SDS011;4686;44.496;11.324;2023-07-31T06:55:25;4.00;;;3.60;;
9294;SDS011;4686;44.496;11.324;2023-07-31T06:57:53;4.00;;;3.70;;
9294;SDS011;4686;44.496;11.324;2023-07-31T07:00:21;3.83;;;3.40;;
9294;SDS011;4686;44.496;11.324;2023-07-31T07:02:48;4.20;;;3.50;;
9294;SDS011;4686;44.496;11.324;2023-07-31T07:05:16;5.73;;;3.67;;
9294;SDS011;4686;44.496;11.324;2023-07-31T07:07:43;4.20;;;3.80;;
9294;SDS011;4686;44.496;11.324;2023-07-31T07:10:10;6.10;;;3.37;;
9294;SDS011;4686;44.496;11.324;2023-07-31T07:12:39;3.70;;;3.40;;
9294;SDS011;4686;44.496;11.324;2023-07-31T07:15:07;3.30;;;3.00;;
9294;SDS011;4686;44.496;11.324;2023-07-31T07:17:36;4.43;;;3.20;;
9294;SDS011;4686;44.496;11.324;2023-07-31T07:20:03;3.93;;;3.30;;
9294;SDS011;4686;44.496;11.324;2023-07-31T07:22:31;4.10;;;3.03;;
9294;SDS011;4686;44.496;11.324;2023-07-31T07:24:58;5.70;;;3.50;;
9294;SDS011;4686;44.496;11.324;2023-07-31T07:27:25;6.63;;;3.47;;
9294;SDS011;4686;44.496;11.324;2023-07-31T07:29:54;3.30;;;2.80;;
9294;SDS011;4686;44.496;11.324;2023-07-31T07:32:21;3.83;;;2.70;;
9294;SDS011;4686;44.496;11.324;2023-07-31T07:34:49;2.80;;;2.60;;
9294;SDS011;4686;44.496;11.324;2023-07-31T07:37:16;3.10;;;2.80;;
9294;SDS011;4686;44.496;11.324;2023-07-31T07:39:43;2.73;;;2.57;;
9294;SDS011;4686;44.496;11.324;2023-07-31T07:42:11;3.20;;;2.70;;
9294;SDS011;4686;44.496;11.324;2023-07-31T07:44:38;3.07;;;2.77;;
9294;SDS011;4686;44.496;11.324;2023-07-31T07:47:07;8.03;;;2.70;;
9294;SDS011;4686;44.496;11.324;2023-07-31T07:49:35;3.57;;;3.20;;
9294;SDS011;4686;44.496;11.324;2023-07-31T07:52:02;7.93;;;3.73;;
9294;SDS011;4686;44.496;11.324;2023-07-31T07:54:30;6.43;;;3.20;;
9294;SDS011;4686;44.496;11.324;2023-07-31T07:56:57;3.37;;;3.07;;
9294;SDS011;4686;44.496;11.324;2023-07-31T07:59:25;4.77;;;3.37;;
9294;SDS011;4686;44.496;11.324;2023-07-31T08:01:52;3.97;;;3.40;;
9294;SDS011;4686;44.496;11.324;2023-07-31T08:04:20;4.40;;;3.60;;
9294;SDS011;4686;44.496;11.324;2023-07-31T08:06:48;5.23;;;3.30;;
9294;SDS011;4686;44.496;11.324;2023-07-31T08:09:15;6.30;;;3.63;;
9294;SDS011;4686;44.496;11.324;2023-07-31T08:11:42;3.70;;;3.40;;
9294;SDS011;4686;44.496;11.324;2023-07-31T08:14:10;5.40;;;3.70;;
9294;SDS011;4686;44.496;11.324;2023-07-31T08:16:38;10.80;;;3.10;;
9294;SDS011;4686;44.496;11.324;2023-07-31T08:19:05;3.47;;;3.20;;
9294;SDS011;4686;44.496;11.324;2023-07-31T08:21:34;4.37;;;3.63;;
9294;SDS011;4686;44.496;11.324;2023-07-31T08:24:01;4.27;;;3.33;;
9294;SDS011;4686;44.496;11.324;2023-07-31T08:26:28;3.93;;;3.43;;
9294;SDS011;4686;44.496;11.324;2023-07-31T08:28:56;3.67;;;3.37;;
9294;SDS011;4686;44.496;11.324;2023-07-31T08:31:23;4.70;;;4.30;;
9294;SDS011;4686;44.496;11.324;2023-07-31T08:33:52;5.77;;;4.20;;
9294;SDS011;4686;44.496;11.324;2023-07-31T08:36:19;4.70;;;3.60;;
9294;SDS011;4686;44.496;11.324;2023-07-31T08:38:48;4.30;;;3.90;;
9294;SDS011;4686;44.496;11.324;2023-07-31T08:41:15;4.30;;;3.70;;
9294;SDS011;4686;44.496;11.324;2023-07-31T08:43:43;6.03;;;3.53;;
9294;SDS011;4686;44.496;11.324;2023-07-31T08:46:11;6.70;;;3.97;;
9294;SDS011;4686;44.496;11.324;2023-07-31T08:48:40;5.97;;;3.50;;
9294;SDS011;4686;44.496;11.324;2023-07-31T08:51:07;5.33;;;3.57;;
9294;SDS011;4686;44.496;11.324;2023-07-31T08:53:39;5.00;;;3.30;;
9294;SDS011;4686;44.496;11.324;2023-07-31T08:56:14;7.23;;;3.60;;
9294;SDS011;4686;44.496;11.324;2023-07-31T08:58:43;4.37;;;3.20;;
9294;SDS011;4686;44.496;11.324;2023-07-31T09:01:11;3.80;;;3.50;;
9294;SDS011;4686;44.496;11.324;2023-07-31T09:03:38;4.07;;;3.47;;
9294;SDS011;4686;44.496;11.324;2023-07-31T09:06:05;7.67;;;3.77;;
9294;SDS011;4686;44.496;11.324;2023-07-31T09:08:33;3.50;;;3.30;;
9294;SDS011;4686;44.496;11.324;2023-07-31T09:11:01;4.03;;;3.47;;
9294;SDS011;4686;44.496;11.324;2023-07-31T09:13:31;5.23;;;3.40;;
9294;SDS011;4686;44.496;11.324;2023-07-31T09:15:58;4.57;;;2.97;;
9294;SDS011;4686;44.496;11.324;2023-07-31T09:18:26;6.10;;;3.10;;
9294;SDS011;4686;44.496;11.324;2023-07-31T09:21:02;3.37;;;3.00;;
9294;SDS011;4686;44.496;11.324;2023-07-31T09:26:13;3.33;;;3.10;;
9294;SDS011;4686;44.496;11.324;2023-07-31T09:28:56;5.50;;;3.17;;
9294;SDS011;4686;44.496;11.324;2023-07-31T09:31:33;3.43;;;3.13;;
9294;SDS011;4686;44.496;11.324;2023-07-31T09:34:05;3.43;;;3.13;;
9294;SDS011;4686;44.496;11.324;2023-07-31T09:36:32;3.73;;;3.40;;
9294;SDS011;4686;44.496;11.324;2023-07-31T09:39:01;3.77;;;3.40;;
9294;SDS011;4686;44.496;11.324;2023-07-31T09:41:29;4.87;;;3.30;;
9294;SDS011;4686;44.496;11.324;2023-07-31T09:43:57;7.57;;;3.50;;
9294;SDS011;4686;44.496;11.324;2023-07-31T09:46:26;3.50;;;3.20;;
9294;SDS011;4686;44.496;11.324;2023-07-31T09:49:02;3.57;;;3.33;;
9294;SDS011;4686;44.496;11.324;2023-07-31T09:51:30;3.90;;;3.60;;
9294;SDS011;4686;44.496;11.324;2023-07-31T09:53:57;4.07;;;3.47;;
9294;SDS011;4686;44.496;11.324;2023-07-31T09:56:24;3.47;;;3.27;;
9294;SDS011;4686;44.496;11.324;2023-07-31T09:58:52;5.83;;;3.50;;
9294;SDS011;4686;44.496;11.324;2023-07-31T10:01:22;3.77;;;3.40;;
9294;SDS011;4686;44.496;11.324;2023-07-31T10:03:49;3.70;;;3.40;;
9294;SDS011;4686;44.496;11.324;2023-07-31T10:06:17;4.00;;;3.40;;
9294;SDS011;4686;44.496;11.324;2023-07-31T10:08:44;4.00;;;3.40;;
9294;SDS011;4686;44.496;11.324;2023-07-31T10:11:14;4.53;;;3.60;;
9294;SDS011;4686;44.496;11.324;2023-07-31T10:13:41;3.80;;;3.50;;
9294;SDS011;4686;44.496;11.324;2023-07-31T10:16:09;10.00;;;3.67;;
9294;SDS011;4686;44.496;11.324;2023-07-31T10:18:38;3.70;;;3.40;;
9294;SDS011;4686;44.496;11.324;2023-07-31T10:21:08;8.00;;;3.83;;
9294;SDS011;4686;44.496;11.324;2023-07-31T10:23:35;4.97;;;3.50;;
9294;SDS011;4686;44.496;11.324;2023-07-31T10:26:04;4.73;;;4.30;;
9294;SDS011;4686;44.496;11.324;2023-07-31T10:28:32;3.57;;;3.27;;
9294;SDS011;4686;44.496;11.324;2023-07-31T10:31:00;7.17;;;4.13;;
9294;SDS011;4686;44.496;11.324;2023-07-31T10:33:28;3.70;;;3.30;;
9294;SDS011;4686;44.496;11.324;2023-07-31T10:38:39;6.57;;;3.40;;
9294;SDS011;4686;44.496;11.324;2023-07-31T10:41:09;4.10;;;3.80;;
9294;SDS011;4686;44.496;11.324;2023-07-31T10:43:37;6.60;;;3.47;;
9294;SDS011;4686;44.496;11.324;2023-07-31T10:46:07;4.40;;;3.80;;
9294;SDS011;4686;44.496;11.324;2023-07-31T10:48:35;4.93;;;3.77;;
9294;SDS011;4686;44.496;11.324;2023-07-31T10:51:06;6.83;;;3.90;;
9294;SDS011;4686;44.496;11.324;2023-07-31T10:53:35;5.33;;;4.10;;
9294;SDS011;4686;44.496;11.324;2023-07-31T10:56:04;4.47;;;3.80;;
9294;SDS011;4686;44.496;11.324;2023-07-31T10:58:32;6.73;;;3.87;;
9294;SDS011;4686;44.496;11.324;2023-07-31T11:01:00;7.20;;;4.27;;
9294;SDS011;4686;44.496;11.324;2023-07-31T11:03:40;4.67;;;3.90;;
9294;SDS011;4686;44.496;11.324;2023-07-31T11:06:08;4.10;;;3.80;;
9294;SDS011;4686;44.496;11.324;2023-07-31T11:08:40;5.10;;;4.37;;
9294;SDS011;4686;44.496;11.324;2023-07-31T11:11:10;6.23;;;3.97;;
9294;SDS011;4686;44.496;11.324;2023-07-31T11:13:41;4.40;;;4.00;;
9294;SDS011;4686;44.496;11.324;2023-07-31T11:16:09;4.83;;;3.90;;
9294;SDS011;4686;44.496;11.324;2023-07-31T11:18:37;6.03;;;4.57;;
9294;SDS011;4686;44.496;11.324;2023-07-31T11:21:05;4.20;;;3.90;;
9294;SDS011;4686;44.496;11.324;2023-07-31T11:23:32;5.17;;;3.63;;
9294;SDS011;4686;44.496;11.324;2023-07-31T11:25:59;3.57;;;3.27;;
9294;SDS011;4686;44.496;11.324;2023-07-31T11:28:30;4.10;;;3.40;;
9294;SDS011;4686;44.496;11.324;2023-07-31T11:30:58;3.60;;;3.30;;
9294;SDS011;4686;44.496;11.324;2023-07-31T11:33:26;5.23;;;4.03;;
9294;SDS011;4686;44.496;11.324;2023-07-31T11:35:54;6.37;;;4.07;;
9294;SDS011;4686;44.496;11.324;2023-07-31T11:38:22;5.17;;;3.90;;
9294;SDS011;4686;44.496;11.324;2023-07-31T11:40:50;4.10;;;3.70;;
9294;SDS011;4686;44.496;11.324;2023-07-31T11:43:18;4.80;;;3.80;;
9294;SDS011;4686;44.496;11.324;2023-07-31T11:45:48;4.03;;;3.63;;
9294;SDS011;4686;44.496;11.324;2023-07-31T11:48:19;7.73;;;3.50;;
9294;SDS011;4686;44.496;11.324;2023-07-31T11:50:48;8.03;;;3.90;;
9294;SDS011;4686;44.496;11.324;2023-07-31T11:53:17;4.77;;;3.60;;
9294;SDS011;4686;44.496;11.324;2023-07-31T11:55:44;5.70;;;3.63;;
9294;SDS011;4686;44.496;11.324;2023-07-31T11:58:12;6.53;;;3.50;;
9294;SDS011;4686;44.496;11.324;2023-07-31T12:00:40;5.30;;;3.80;;
9294;SDS011;4686;44.496;11.324;2023-07-31T12:03:09;5.50;;;4.20;;
9294;SDS011;4686;44.496;11.324;2023-07-31T12:05:36;3.93;;;3.63;;
9294;SDS011;4686;44.496;11.324;2023-07-31T12:08:08;5.10;;;3.90;;
9294;SDS011;4686;44.496;11.324;2023-07-31T12:10:36;7.50;;;3.73;;
9294;SDS011;4686;44.496;11.324;2023-07-31T12:13:06;7.87;;;3.90;;
9294;SDS011;4686;44.496;11.324;2023-07-31T12:15:36;9.83;;;4.20;;
9294;SDS011;4686;44.496;11.324;2023-07-31T12:18:05;4.50;;;3.83;;
9294;SDS011;4686;44.496;11.324;2023-07-31T12:20:34;5.30;;;3.93;;
9294;SDS011;4686;44.496;11.324;2023-07-31T12:23:01;4.43;;;4.13;;
9294;SDS011;4686;44.496;11.324;2023-07-31T12:25:29;4.93;;;3.63;;
9294;SDS011;4686;44.496;11.324;2023-07-31T12:27:57;4.07;;;3.70;;
9294;SDS011;4686;44.496;11.324;2023-07-31T12:30:28;5.33;;;4.00;;
9294;SDS011;4686;44.496;11.324;2023-07-31T12:32:55;4.30;;;4.00;;
9294;SDS011;4686;44.496;11.324;2023-07-31T12:35:22;3.93;;;3.53;;
9294;SDS011;4686;44.496;11.324;2023-07-31T12:37:51;3.80;;;3.50;;
9294;SDS011;4686;44.496;11.324;2023-07-31T12:40:19;5.87;;;3.63;;
9294;SDS011;4686;44.496;11.324;2023-07-31T12:42:46;4.30;;;4.00;;
9294;SDS011;4686;44.496;11.324;2023-07-31T12:45:14;4.70;;;3.80;;
9294;SDS011;4686;44.496;11.324;2023-07-31T12:47:41;3.80;;;3.50;;
9294;SDS011;4686;44.496;11.324;2023-07-31T12:50:08;6.37;;;4.03;;
9294;SDS011;4686;44.496;11.324;2023-07-31T12:52:36;4.30;;;3.90;;
9294;SDS011;4686;44.496;11.324;2023-07-31T12:55:06;4.70;;;3.90;;
9294;SDS011;4686;44.496;11.324;2023-07-31T12:57:34;5.87;;;3.83;;
9294;SDS011;4686;44.496;11.324;2023-07-31T13:00:01;5.80;;;3.70;;
9294;SDS011;4686;44.496;11.324;2023-07-31T13:02:28;7.33;;;3.67;;
9294;SDS011;4686;44.496;11.324;2023-07-31T13:04:56;3.83;;;3.53;;
9294;SDS011;4686;44.496;11.324;2023-07-31T13:07:23;4.13;;;3.60;;
9294;SDS011;4686;44.496;11.324;2023-07-31T13:09:51;4.33;;;4.00;;
9294;SDS011;4686;44.496;11.324;2023-07-31T13:12:20;5.20;;;3.63;;
9294;SDS011;4686;44.496;11.324;2023-07-31T13:14:47;4.20;;;3.43;;
9294;SDS011;4686;44.496;11.324;2023-07-31T13:17:15;4.30;;;3.70;;
9294;SDS011;4686;44.496;11.324;2023-07-31T13:19:42;4.80;;;4.30;;
9294;SDS011;4686;44.496;11.324;2023-07-31T13:22:13;3.83;;;3.43;;
9294;SDS011;4686;44.496;11.324;2023-07-31T13:24:40;4.20;;;3.80;;
9294;SDS011;4686;44.496;11.324;2023-07-31T13:27:08;3.80;;;3.47;;
9294;SDS011;4686;44.496;11.324;2023-07-31T13:29:37;6.10;;;3.10;;
9294;SDS011;4686;44.496;11.324;2023-07-31T13:32:06;3.70;;;3.40;;
9294;SDS011;4686;44.496;11.324;2023-07-31T13:34:33;4.03;;;3.60;;
9294;SDS011;4686;44.496;11.324;2023-07-31T13:37:01;8.03;;;3.73;;
9294;SDS011;4686;44.496;11.324;2023-07-31T13:39:28;3.97;;;3.57;;
9294;SDS011;4686;44.496;11.324;2023-07-31T13:41:56;4.87;;;3.60;;
9294;SDS011;4686;44.496;11.324;2023-07-31T13:44:23;6.20;;;3.80;;
9294;SDS011;4686;44.496;11.324;2023-07-31T13:46:52;7.90;;;3.90;;
9294;SDS011;4686;44.496;11.324;2023-07-31T13:49:19;4.93;;;3.43;;
9294;SDS011;4686;44.496;11.324;2023-07-31T13:51:46;4.40;;;3.60;;
9294;SDS011;4686;44.496;11.324;2023-07-31T13:54:14;4.17;;;3.77;;
9294;SDS011;4686;44.496;11.324;2023-07-31T13:56:42;3.63;;;3.33;;
9294;SDS011;4686;44.496;11.324;2023-07-31T13:59:09;3.93;;;3.63;;
9294;SDS011;4686;44.496;11.324;2023-07-31T14:01:37;3.90;;;3.60;;
9294;SDS011;4686;44.496;11.324;2023-07-31T14:04:05;5.10;;;3.50;;
9294;SDS011;4686;44.496;11.324;2023-07-31T14:06:33;4.80;;;3.60;;
9294;SDS011;4686;44.496;11.324;2023-07-31T14:09:00;4.60;;;3.40;;
9294;SDS011;4686;44.496;11.324;2023-07-31T14:11:28;3.70;;;3.40;;
9294;SDS011;4686;44.496;11.324;2023-07-31T14:13:55;5.83;;;3.60;;
9294;SDS011;4686;44.496;11.324;2023-07-31T14:16:23;3.70;;;3.40;;
9294;SDS011;4686;44.496;11.324;2023-07-31T14:18:50;3.77;;;3.47;;
9294;SDS011;4686;44.496;11.324;2023-07-31T14:21:20;7.53;;;3.60;;
9294;SDS011;4686;44.496;11.324;2023-07-31T14:23:47;4.33;;;3.50;;
9294;SDS011;4686;44.496;11.324;2023-07-31T14:26:14;4.10;;;3.80;;
9294;SDS011;4686;44.496;11.324;2023-07-31T14:28:42;5.10;;;3.57;;
9294;SDS011;4686;44.496;11.324;2023-07-31T14:31:09;3.67;;;3.37;;
9294;SDS011;4686;44.496;11.324;2023-07-31T14:33:36;3.93;;;3.60;;
9294;SDS011;4686;44.496;11.324;2023-07-31T14:36:04;12.33;;;3.43;;
9294;SDS011;4686;44.496;11.324;2023-07-31T14:38:33;5.13;;;3.30;;
9294;SDS011;4686;44.496;11.324;2023-07-31T14:41:00;3.80;;;3.40;;
9294;SDS011;4686;44.496;11.324;2023-07-31T14:43:27;3.93;;;3.57;;
9294;SDS011;4686;44.496;11.324;2023-07-31T14:45:55;4.43;;;3.27;;
9294;SDS011;4686;44.496;11.324;2023-07-31T14:48:24;11.73;;;3.63;;
9294;SDS011;4686;44.496;11.324;2023-07-31T14:50:52;4.07;;;2.97;;
9294;SDS011;4686;44.496;11.324;2023-07-31T14:53:19;5.77;;;3.63;;
9294;SDS011;4686;44.496;11.324;2023-07-31T14:55:47;3.57;;;3.27;;
9294;SDS011;4686;44.496;11.324;2023-07-31T14:58:15;3.83;;;3.53;;
9294;SDS011;4686;44.496;11.324;2023-07-31T15:00:43;5.67;;;3.70;;
9294;SDS011;4686;44.496;11.324;2023-07-31T15:03:10;3.70;;;3.40;;
9294;SDS011;4686;44.496;11.324;2023-07-31T15:05:37;3.87;;;3.00;;
9294;SDS011;4686;44.496;11.324;2023-07-31T15:08:05;6.93;;;3.53;;
9294;SDS011;4686;44.496;11.324;2023-07-31T15:10:32;7.33;;;3.33;;
9294;SDS011;4686;44.496;11.324;2023-07-31T15:13:00;3.30;;;3.00;;